Time;durP1;ratioP1;P1;durP2;ratioP2;P2;SDS_P1;SDS_P2;PMS_P1;PMS_P2;Temp;Humidity;BMP_temperature;BMP_pressure;BME280_temperature;BME280_humidity;BME280_pressure;Samples;Min_cycle;Max_cycle;Signal;HPM_P1;HPM_P2
2022/07/05 00:01:50;;;;;;;2.22;2.13;;;;;;;19.21;100.00;96923.53;5123465;27;20220;-52
2022/07/05 00:04:17;;;;;;;2.20;1.98;;;;;;;19.24;100.00;96922.31;5122238;27;20288;-53
2022/07/05 00:09:25;;;;;;;2.15;1.85;;;;;;;19.21;100.00;96909.28;5115087;28;20632;-53
2022/07/05 00:11:56;;;;;;;2.13;1.90;;;;;;;19.20;100.00;96911.13;5117025;28;20205;-53
2022/07/05 00:14:23;;;;;;;1.95;1.77;;;;;;;19.23;100.00;96916.16;5127055;27;20280;-52
2022/07/05 00:16:50;;;;;;;2.45;1.90;;;;;;;19.30;100.00;96913.53;5115049;28;20225;-52
2022/07/05 00:19:17;;;;;;;2.33;2.00;;;;;;;19.33;100.00;96916.66;5115273;28;20236;-52
2022/07/05 00:21:46;;;;;;;3.70;2.08;;;;;;;19.26;100.00;96917.59;5115284;28;20208;-52
2022/07/05 00:24:14;;;;;;;3.97;2.13;;;;;;;19.26;100.00;96914.91;5125893;27;20197;-52
2022/07/05 00:26:41;;;;;;;3.10;2.15;;;;;;;19.24;100.00;96917.78;5132420;27;20639;-53
2022/07/05 00:29:09;;;;;;;6.05;2.30;;;;;;;19.22;100.00;96916.31;5138099;28;20224;-54
2022/07/05 00:31:36;;;;;;;2.10;1.85;;;;;;;19.25;100.00;96910.56;5135183;28;20226;-52
2022/07/05 00:34:03;;;;;;;2.03;1.85;;;;;;;19.31;100.00;96915.16;5120534;28;20216;-52
2022/07/05 00:36:30;;;;;;;2.00;1.90;;;;;;;19.26;100.00;96909.56;5123064;28;20228;-52
2022/07/05 00:38:56;;;;;;;2.20;2.08;;;;;;;19.25;100.00;96907.88;5116278;28;20215;-53
2022/07/05 00:41:23;;;;;;;1.67;1.60;;;;;;;19.26;100.00;96906.88;5128079;28;20241;-53
2022/07/05 00:43:54;;;;;;;2.40;2.22;;;;;;;19.26;100.00;96912.25;5125061;27;20211;-53
2022/07/05 00:46:23;;;;;;;1.90;1.80;;;;;;;19.25;100.00;96914.09;5114927;28;20193;-53
2022/07/05 00:48:50;;;;;;;2.30;2.10;;;;;;;19.25;100.00;96908.72;5115467;28;20205;-51
2022/07/05 00:51:17;;;;;;;2.20;2.00;;;;;;;19.25;100.00;96914.09;5134484;28;20205;-54
2022/07/05 00:53:44;;;;;;;2.30;2.10;;;;;;;19.27;100.00;96908.53;5135813;27;20200;-54
2022/07/05 00:56:13;;;;;;;3.33;2.03;;;;;;;19.24;100.00;96895.50;5115685;27;20605;-52
2022/07/05 00:58:41;;;;;;;2.22;1.90;;;;;;;19.23;100.00;96899.22;5115122;28;20205;-52
2022/07/05 01:01:09;;;;;;;3.25;2.30;;;;;;;19.24;100.00;96900.84;5121175;28;20298;-52
2022/07/05 01:03:38;;;;;;;2.67;2.47;;;;;;;19.25;100.00;96902.53;5122288;27;20303;-53
2022/07/05 01:06:07;;;;;;;1.90;1.75;;;;;;;19.22;100.00;96902.91;5120777;28;20200;-53
2022/07/05 01:08:36;;;;;;;2.88;2.00;;;;;;;19.24;100.00;96901.69;5122084;27;20216;-52
2022/07/05 01:11:03;;;;;;;2.22;1.90;;;;;;;19.27;100.00;96905.88;5126908;27;20621;-53
2022/07/05 01:13:30;;;;;;;2.65;2.17;;;;;;;19.27;100.00;96900.50;5114843;28;20266;-52
2022/07/05 01:16:00;;;;;;;4.75;2.17;;;;;;;19.26;100.00;96904.19;5115298;28;20291;-52
2022/07/05 01:18:27;;;;;;;2.67;2.30;;;;;;;19.27;100.00;96903.19;5115171;28;20213;-53
2022/07/05 01:20:56;;;;;;;3.80;2.05;;;;;;;19.25;100.00;96898.00;5116576;28;20205;-53
2022/07/05 01:23:27;;;;;;;2.78;2.10;;;;;;;19.25;100.00;96900.69;5118972;28;20545;-53
2022/07/05 01:25:55;;;;;;;1.92;1.83;;;;;;;19.27;100.00;96903.19;5124554;27;20193;-54
2022/07/05 01:28:22;;;;;;;2.40;2.20;;;;;;;19.27;100.00;96903.19;5125837;27;20204;-53
2022/07/05 01:30:49;;;;;;;2.70;2.13;;;;;;;19.24;100.00;96900.84;5129320;27;20224;-52
2022/07/05 01:33:17;;;;;;;2.58;2.35;;;;;;;19.26;100.00;96901.50;5132408;27;20288;-52
2022/07/05 01:35:43;;;;;;;2.20;2.10;;;;;;;19.27;100.00;96905.88;5129070;27;20671;-53
2022/07/05 01:38:12;;;;;;;2.47;2.08;;;;;;;19.28;100.00;96908.34;5124900;27;20552;-53
2022/07/05 01:40:41;;;;;;;3.33;2.22;;;;;;;19.32;100.00;96906.09;5128068;27;20266;-54
2022/07/05 01:43:08;;;;;;;2.50;2.10;;;;;;;19.33;100.00;96915.81;5120948;27;20216;-53
2022/07/05 01:45:41;;;;;;;2.83;1.80;;;;;;;19.30;100.00;96922.41;5128368;27;20211;-52
2022/07/05 01:48:09;;;;;;;2.65;2.08;;;;;;;19.29;100.00;96930.63;5118695;28;20198;-52
2022/07/05 01:50:41;;;;;;;2.00;1.90;;;;;;;19.29;100.00;96936.81;5132611;27;20216;-53
2022/07/05 01:53:12;;;;;;;2.13;1.85;;;;;;;19.29;100.00;96944.03;5127366;27;20521;-53
2022/07/05 01:55:40;;;;;;;2.40;2.08;;;;;;;19.23;100.00;96942.13;5138444;27;20209;-53
2022/07/05 01:58:07;;;;;;;2.30;2.10;;;;;;;19.28;100.00;96945.03;5120604;28;20315;-52
2022/07/05 02:00:43;;;;;;;3.05;2.85;;;;;;;19.28;100.00;96945.03;5132412;27;20200;-53
2022/07/05 02:03:10;;;;;;;4.47;2.25;;;;;;;19.22;100.00;96945.81;5128257;27;20229;-52
2022/07/05 02:05:38;;;;;;;2.95;2.22;;;;;;;19.10;100.00;96940.09;5126120;27;20295;-52
2022/07/05 02:08:05;;;;;;;2.22;2.13;;;;;;;19.01;100.00;96948.47;5123334;28;20212;-53
2022/07/05 02:10:33;;;;;;;2.47;1.98;;;;;;;18.91;100.00;96943.41;5140229;27;20232;-54
2022/07/05 02:13:02;;;;;;;2.05;1.83;;;;;;;18.68;100.00;96943.50;5141238;27;20181;-53
2022/07/05 02:15:31;;;;;;;2.85;1.63;;;;;;;18.53;100.00;96948.03;5141284;28;20182;-53
2022/07/05 02:17:58;;;;;;;2.13;1.92;;;;;;;18.40;100.00;96947.81;5141373;28;20231;-53
2022/07/05 02:20:25;;;;;;;1.75;1.60;;;;;;;18.33;100.00;96945.06;5141275;28;20188;-53
2022/07/05 02:22:51;;;;;;;3.03;2.35;;;;;;;18.32;100.00;96947.91;5150778;27;20189;-53
2022/07/05 02:25:20;;;;;;;2.33;2.00;;;;;;;18.26;100.00;96943.28;5142967;27;20193;-53
2022/07/05 02:27:47;;;;;;;2.65;1.90;;;;;;;18.20;100.00;96934.16;5140661;28;20181;-53
2022/07/05 02:30:17;;;;;;;2.10;2.00;;;;;;;18.16;100.00;96938.22;5160458;27;20194;-53
2022/07/05 02:32:43;;;;;;;2.38;1.80;;;;;;;18.09;100.00;96936.44;5148167;27;20228;-53
2022/07/05 02:35:11;;;;;;;3.92;2.25;;;;;;;18.07;100.00;96939.28;5119435;27;20224;-54
2022/07/05 02:37:40;;;;;;;2.05;1.95;;;;;;;18.07;100.00;96939.28;5124327;27;20232;-53
2022/07/05 02:40:10;;;;;;;2.78;2.15;;;;;;;17.87;100.00;96930.13;5139104;27;20232;-53
2022/07/05 02:42:37;;;;;;;2.05;1.80;;;;;;;17.75;100.00;96935.06;5144744;27;20263;-53
2022/07/05 02:45:04;;;;;;;3.03;2.20;;;;;;;17.58;100.00;96928.19;5124311;28;20205;-53
2022/07/05 02:47:34;;;;;;;2.10;1.95;;;;;;;17.55;100.00;96933.88;5121268;27;20201;-53
2022/07/05 02:50:04;;;;;;;2.30;2.10;;;;;;;17.48;100.00;96940.13;5123324;28;20692;-54
2022/07/05 02:52:30;;;;;;;2.47;1.80;;;;;;;17.51;100.00;96942.44;5129152;28;20224;-53
2022/07/05 02:54:57;;;;;;;2.72;1.75;;;;;;;17.47;100.00;96939.28;5124905;28;20235;-53
2022/07/05 02:57:25;;;;;;;3.50;1.85;;;;;;;17.36;100.00;96940.53;5135525;27;20275;-52
2022/07/05 02:59:55;;;;;;;2.03;1.92;;;;;;;17.31;100.00;96937.56;5136341;28;20210;-52
2022/07/05 03:02:21;;;;;;;3.42;2.05;;;;;;;17.24;100.00;96936.63;5151241;27;20196;-52
2022/07/05 03:04:50;;;;;;;1.90;1.80;;;;;;;17.17;100.00;96941.00;5148987;27;20180;-53
2022/07/05 03:07:16;;;;;;;2.10;1.88;;;;;;;17.16;100.00;96949.19;5142696;27;20251;-52
2022/07/05 03:09:43;;;;;;;3.40;1.83;;;;;;;17.09;100.00;96945.56;5139887;28;20208;-53
2022/07/05 03:12:11;;;;;;;2.28;1.70;;;;;;;17.09;100.00;96953.56;5139818;28;20212;-53
2022/07/05 03:14:40;;;;;;;2.08;1.80;;;;;;;17.08;100.00;96944.72;5140133;27;20184;-52
2022/07/05 03:17:06;;;;;;;2.17;1.80;;;;;;;17.05;100.00;96954.94;5157847;27;20459;-52
2022/07/05 03:19:35;;;;;;;1.80;1.70;;;;;;;17.01;100.00;96951.78;5160577;27;20204;-52
2022/07/05 03:22:04;;;;;;;2.85;1.52;;;;;;;17.03;100.00;96959.63;5142569;27;20197;-51
2022/07/05 03:24:40;;;;;;;2.45;2.25;;;;;;;16.95;100.00;96957.00;5139986;28;20201;-53
2022/07/05 03:27:06;;;;;;;1.98;1.70;;;;;;;16.88;100.00;96957.69;5150456;27;20189;-53
2022/07/05 03:29:34;;;;;;;2.35;1.55;;;;;;;16.90;100.00;96966.34;5129713;27;20197;-53
2022/07/05 03:32:00;;;;;;;3.13;1.90;;;;;;;16.86;100.00;96959.69;5116575;27;20215;-53
2022/07/05 03:34:30;;;;;;;1.73;1.63;;;;;;;16.82;100.00;96969.09;5116662;28;20295;-52
2022/07/05 03:36:56;;;;;;;2.78;1.73;;;;;;;16.79;100.00;96966.75;5130026;27;20212;-52
2022/07/05 03:39:25;;;;;;;2.33;2.13;;;;;;;16.81;100.00;96964.75;5116569;28;20201;-52
2022/07/05 03:41:57;;;;;;;4.75;4.30;;;;;;;16.83;100.00;96964.56;5115795;28;20245;-53
2022/07/05 03:44:24;;;;;;;5.10;2.90;;;;;;;16.79;100.00;96964.06;5123154;28;20170;-53
2022/07/05 03:46:54;;;;;;;3.22;2.40;;;;;;;16.81;100.00;96963.91;5139707;28;20181;-52
2022/07/05 03:49:21;;;;;;;2.30;2.20;;;;;;;16.82;100.00;96960.25;5139310;28;20181;-53
2022/07/05 03:51:48;;;;;;;2.50;1.88;;;;;;;16.79;100.00;96969.41;5139487;28;20192;-52
2022/07/05 03:54:15;;;;;;;2.22;2.08;;;;;;;16.79;100.00;96969.41;5139796;28;20193;-52
2022/07/05 03:56:46;;;;;;;2.85;2.00;;;;;;;16.81;100.00;96967.41;5139758;28;20177;-52
2022/07/05 03:59:12;;;;;;;2.20;2.10;;;;;;;16.84;100.00;96972.41;5139043;28;20269;-52
2022/07/05 04:01:40;;;;;;;2.47;2.08;;;;;;;16.86;100.00;96980.25;5138035;28;20181;-53
2022/07/05 04:04:07;;;;;;;2.55;2.35;;;;;;;16.89;100.00;96983.41;5138916;28;20189;-52
2022/07/05 04:06:35;;;;;;;2.15;1.90;;;;;;;16.85;100.00;96974.09;5138684;28;20264;-53
2022/07/05 04:09:02;;;;;;;3.13;2.30;;;;;;;16.87;100.00;96980.06;5138916;28;20212;-53
2022/07/05 04:11:32;;;;;;;2.67;2.20;;;;;;;16.88;100.00;96984.41;5138871;28;20215;-53
2022/07/05 04:14:00;;;;;;;2.15;2.03;;;;;;;16.88;100.00;96992.44;5138135;28;20185;-53
2022/07/05 04:16:27;;;;;;;2.33;2.00;;;;;;;16.91;100.00;96989.41;5139022;28;20209;-52
2022/07/05 04:18:54;;;;;;;3.63;2.80;;;;;;;16.92;100.00;96991.06;5137292;28;20231;-55
2022/07/05 04:21:21;;;;;;;7.67;6.83;;;;;;;16.93;100.00;96995.38;5115818;28;20212;-53
2022/07/05 04:23:47;;;;;;;4.40;2.70;;;;;;;16.95;100.00;97000.56;5120634;27;20536;-52
2022/07/05 04:26:14;;;;;;;2.85;2.63;;;;;;;16.98;100.00;96996.72;5122623;27;20205;-52
2022/07/05 04:28:41;;;;;;;2.65;2.42;;;;;;;16.98;100.00;97002.06;5115096;28;20201;-51
2022/07/05 04:31:12;;;;;;;3.10;2.70;;;;;;;17.00;100.00;96994.72;5115423;28;20291;-52
2022/07/05 04:33:39;;;;;;;2.63;2.40;;;;;;;17.04;100.00;97001.38;5115706;28;20207;-53
2022/07/05 04:36:07;;;;;;;2.83;2.50;;;;;;;17.06;100.00;97002.03;5115379;28;20286;-52
2022/07/05 04:38:34;;;;;;;2.85;2.67;;;;;;;17.05;100.00;97000.34;5115291;28;20228;-52
2022/07/05 04:41:00;;;;;;;2.45;2.25;;;;;;;17.08;100.00;97005.34;5114830;28;20341;-53
2022/07/05 04:43:30;;;;;;;3.35;2.42;;;;;;;17.14;100.00;97002.84;5121795;28;20529;-53
2022/07/05 04:45:56;;;;;;;2.85;2.63;;;;;;;17.14;100.00;97012.69;5120921;27;20212;-53
2022/07/05 04:48:24;;;;;;;2.80;2.47;;;;;;;17.18;100.00;97000.66;5130999;28;20224;-52
2022/07/05 04:50:51;;;;;;;2.35;2.25;;;;;;;17.20;100.00;97011.97;5153763;28;20192;-52
2022/07/05 04:53:17;;;;;;;2.70;2.50;;;;;;;17.26;100.00;97011.25;5148613;27;20197;-51
2022/07/05 04:55:44;;;;;;;2.70;2.50;;;;;;;17.28;100.00;97014.63;5119844;28;20291;-51
2022/07/05 04:58:11;;;;;;;3.30;2.67;;;;;;;17.29;100.00;97014.44;5119784;28;20242;-53
2022/07/05 05:00:39;;;;;;;2.95;2.60;;;;;;;17.39;100.00;97019.56;5120203;27;20209;-52
2022/07/05 05:03:06;;;;;;;2.50;2.30;;;;;;;17.46;100.00;97015.19;5130709;27;20633;-52
2022/07/05 05:05:34;;;;;;;4.25;2.53;;;;;;;17.46;100.00;97017.03;5119175;28;20624;-51
2022/07/05 05:08:03;;;;;;;3.30;3.10;;;;;;;17.43;100.00;97020.84;5119552;28;20213;-53
2022/07/05 05:10:30;;;;;;;3.78;2.60;;;;;;;17.50;100.00;97021.81;5118158;27;20300;-55
2022/07/05 05:12:57;;;;;;;5.68;2.50;;;;;;;17.52;100.00;97025.16;5126860;27;20200;-54
2022/07/05 05:15:25;;;;;;;2.63;2.42;;;;;;;17.51;100.00;97023.50;5123832;27;20207;-54
2022/07/05 05:17:52;;;;;;;2.40;2.30;;;;;;;17.54;100.00;97030.31;5128518;27;20336;-54
2022/07/05 05:20:19;;;;;;;2.40;2.30;;;;;;;17.55;100.00;97030.16;5132240;27;20704;-54
2022/07/05 05:22:49;;;;;;;3.35;2.85;;;;;;;17.58;100.00;97024.47;5128000;27;20215;-54
2022/07/05 05:25:16;;;;;;;3.85;2.90;;;;;;;17.61;100.00;97026.78;5125528;27;20201;-53
2022/07/05 05:27:44;;;;;;;3.13;2.47;;;;;;;17.63;100.00;97022.13;5127252;27;20292;-53
2022/07/05 05:30:12;;;;;;;3.03;2.83;;;;;;;17.70;100.00;97024.91;5132676;27;20550;-53
2022/07/05 05:32:42;;;;;;;3.70;3.40;;;;;;;17.76;100.00;97029.53;5129812;27;20543;-53
2022/07/05 05:35:10;;;;;;;3.90;2.97;;;;;;;17.81;100.00;97019.16;5124840;27;20211;-54
2022/07/05 05:37:51;;;;;;;3.00;2.75;;;;;;;17.91;100.00;97022.41;5119546;27;20722;-53
2022/07/05 05:40:18;;;;;;;3.75;3.20;;;;;;;18.00;100.00;97033.84;5118477;28;20181;-54
2022/07/05 05:42:50;;;;;;;5.63;3.60;;;;;;;18.02;100.00;97032.69;5131361;27;20315;-54
2022/07/05 05:45:16;;;;;;;3.50;3.30;;;;;;;18.05;100.00;97042.19;5127094;27;20222;-54
2022/07/05 05:47:46;;;;;;;3.35;3.15;;;;;;;18.11;100.00;97033.44;5121681;27;20316;-54
2022/07/05 05:50:12;;;;;;;3.53;3.15;;;;;;;18.27;100.00;97041.34;5128631;27;20201;-53
2022/07/05 05:52:39;;;;;;;3.70;3.10;;;;;;;18.34;100.00;97047.63;5125042;27;20204;-54
2022/07/05 05:55:08;;;;;;;3.80;3.50;;;;;;;18.38;100.00;97052.47;5138738;27;20284;-54
2022/07/05 05:57:35;;;;;;;3.33;3.13;;;;;;;18.38;100.00;97049.78;5124672;27;20288;-54
2022/07/05 06:00:02;;;;;;;3.50;3.25;;;;;;;18.43;100.00;97051.91;5127960;27;20700;-53
2022/07/05 06:02:29;;;;;;;3.47;3.20;;;;;;;18.48;100.00;97052.19;5129995;27;20208;-53
2022/07/05 06:04:56;;;;;;;5.07;3.08;;;;;;;18.52;100.00;97055.38;5128736;27;20628;-54
2022/07/05 06:07:24;;;;;;;3.47;3.28;;;;;;;18.56;100.00;97054.84;5119949;27;20636;-54
2022/07/05 06:09:50;;;;;;;4.00;3.10;;;;;;;18.68;100.00;97063.22;5129039;27;20656;-54
2022/07/05 06:12:18;;;;;;;3.75;3.42;;;;;;;18.74;100.00;97059.84;5124609;27;20227;-53
2022/07/05 06:14:46;;;;;;;3.22;3.03;;;;;;;18.78;100.00;97055.75;5127167;27;20202;-53
2022/07/05 06:17:13;;;;;;;3.38;3.08;;;;;;;18.87;100.00;97066.22;5131311;27;20205;-54
2022/07/05 06:19:40;;;;;;;3.40;3.20;;;;;;;19.00;100.00;97064.72;5129801;27;20224;-53
2022/07/05 06:22:08;;;;;;;4.18;3.60;;;;;;;19.13;100.00;97059.56;5124495;27;20234;-55
2022/07/05 06:24:36;;;;;;;4.55;3.38;;;;;;;19.23;100.00;97062.78;5125952;27;20537;-54
2022/07/05 06:27:05;;;;;;;4.00;3.60;;;;;;;19.30;100.00;97055.66;5131424;27;20201;-53
2022/07/05 06:29:35;;;;;;;3.67;3.38;;;;;;;19.42;100.00;97062.22;5129130;27;20643;-53
2022/07/05 06:32:03;;;;;;;5.88;3.58;;;;;;;19.51;100.00;97060.25;5124835;27;20204;-53
2022/07/05 06:34:32;;;;;;;9.07;3.80;;;;;;;19.57;100.00;97072.91;5124422;27;20202;-53
2022/07/05 06:36:58;;;;;;;4.13;3.30;;;;;;;19.61;100.00;97069.69;5124514;27;20197;-55
2022/07/05 06:39:25;;;;;;;4.25;3.78;;;;;;;19.63;100.00;97070.31;5124392;27;20236;-53
2022/07/05 06:41:51;;;;;;;5.93;3.85;;;;;;;19.64;100.00;97080.03;5130275;27;20268;-53
2022/07/05 06:44:19;;;;;;;4.22;3.80;;;;;;;19.69;100.00;97077.63;5131119;27;20287;-54
2022/07/05 06:46:47;;;;;;;5.45;3.53;;;;;;;19.73;100.00;97081.56;5124732;27;20712;-53
2022/07/05 06:49:16;;;;;;;3.83;3.50;;;;;;;19.80;100.00;97079.78;5122365;27;20201;-52
2022/07/05 06:51:43;;;;;;;4.15;3.35;;;;;;;19.83;100.00;97084.81;5126584;27;20208;-53
2022/07/05 06:54:09;;;;;;;3.00;2.80;;;;;;;19.87;100.00;97080.69;5123805;27;20209;-54
2022/07/05 06:56:38;;;;;;;2.95;2.70;;;;;;;19.95;100.00;97086.97;5128657;27;20197;-54
2022/07/05 06:59:05;;;;;;;3.28;2.95;;;;;;;20.04;100.00;97093.88;5130535;27;20717;-54
2022/07/05 07:01:32;;;;;;;3.25;2.85;;;;;;;20.10;100.00;97091.25;5134704;27;20268;-54
2022/07/05 07:04:00;;;;;;;2.58;2.40;;;;;;;20.15;100.00;97088.84;5134371;27;20243;-53
2022/07/05 07:06:27;;;;;;;3.15;2.90;;;;;;;20.15;100.00;97094.22;5133451;27;20296;-54
2022/07/05 07:11:37;;;;;;;4.38;2.55;;;;;;;20.28;90.68;97096.22;5129426;27;20749;-53
2022/07/05 07:14:04;;;;;;;3.60;2.58;;;;;;;20.26;93.69;97098.25;5123945;27;20215;-53
2022/07/05 07:16:30;;;;;;;2.45;2.25;;;;;;;20.32;94.62;97095.66;5124519;27;20209;-53
2022/07/05 07:18:59;;;;;;;3.70;2.65;;;;;;;20.32;96.24;97106.38;5130384;27;20217;-53
2022/07/05 07:21:26;;;;;;;2.80;2.50;;;;;;;20.40;95.25;97102.75;5130380;27;20215;-54
2022/07/05 07:23:55;;;;;;;2.47;2.28;;;;;;;20.45;94.46;97094.91;5131241;27;20296;-53
2022/07/05 07:26:24;;;;;;;2.60;2.10;;;;;;;20.50;92.74;97102.41;5116668;28;20220;-52
2022/07/05 07:28:54;;;;;;;2.35;2.05;;;;;;;20.57;93.65;97103.28;5124035;27;20196;-53
2022/07/05 07:31:20;;;;;;;2.70;2.28;;;;;;;20.63;91.74;97097.97;5123266;27;20628;-53
2022/07/05 07:33:49;;;;;;;2.70;2.25;;;;;;;20.70;91.68;97109.59;5127698;27;20213;-54
2022/07/05 07:36:25;;;;;;;2.03;1.92;;;;;;;20.76;89.51;97103.44;5130781;27;20200;-54
2022/07/05 07:38:51;;;;;;;3.28;2.38;;;;;;;20.77;89.88;97099.72;5126831;27;20323;-54
2022/07/05 07:41:18;;;;;;;5.82;5.30;;;;;;;20.76;89.45;97102.63;5122462;27;20236;-54
2022/07/05 07:43:45;;;;;;;5.10;4.60;;;;;;;20.79;91.01;97097.69;5126447;27;20239;-54
2022/07/05 07:46:11;;;;;;;2.95;2.47;;;;;;;20.79;89.98;97097.69;5132693;27;20287;-53
2022/07/05 07:48:38;;;;;;;2.92;2.00;;;;;;;20.81;90.34;97101.00;5126186;27;20525;-53
2022/07/05 07:51:05;;;;;;;2.83;2.00;;;;;;;20.84;89.55;97111.38;5129611;27;20300;-54
2022/07/05 07:53:34;;;;;;;4.80;2.53;;;;;;;21.02;87.65;97107.34;5126586;27;20204;-53
2022/07/05 07:56:01;;;;;;;3.58;2.55;;;;;;;21.16;89.45;97111.81;5132879;27;20280;-54
2022/07/05 07:58:30;;;;;;;3.92;2.70;;;;;;;21.33;89.89;97108.59;5126606;27;20211;-53
2022/07/05 08:00:57;;;;;;;3.20;2.60;;;;;;;21.47;89.74;97112.19;5121822;27;20204;-53
2022/07/05 08:03:25;;;;;;;4.30;2.42;;;;;;;21.72;86.82;97105.25;5124534;27;20284;-53
2022/07/05 08:05:52;;;;;;;2.60;2.40;;;;;;;21.86;86.09;97108.00;5129574;27;20280;-53
2022/07/05 08:08:18;;;;;;;3.72;2.58;;;;;;;21.95;85.35;97101.44;5127606;27;20630;-53
2022/07/05 08:10:50;;;;;;;2.30;2.10;;;;;;;22.24;84.84;97103.78;5122696;27;20543;-53
2022/07/05 08:13:17;;;;;;;2.20;2.00;;;;;;;22.64;85.10;97108.16;5123493;27;20197;-53
2022/07/05 08:15:43;;;;;;;2.25;2.15;;;;;;;22.81;81.76;97104.03;5129916;27;20304;-54
2022/07/05 08:23:39;;;;;;;2.30;1.75;;;;;;;23.93;74.01;97109.16;5122697;27;20252;-53
2022/07/05 08:26:09;;;;;;;3.15;2.90;;;;;;;24.40;74.92;97097.06;5124419;27;20592;-53
2022/07/05 08:28:36;;;;;;;3.80;2.05;;;;;;;24.62;72.29;97092.94;5129164;27;20683;-53
2022/07/05 08:31:03;;;;;;;4.03;1.90;;;;;;;24.77;73.93;97090.72;5127775;27;20604;-54
2022/07/05 08:33:31;;;;;;;3.70;2.33;;;;;;;25.02;73.91;97095.31;5122921;27;20295;-53
2022/07/05 08:35:58;;;;;;;3.35;2.03;;;;;;;25.38;70.29;97095.38;5122122;28;20609;-54
2022/07/05 08:38:25;;;;;;;3.55;2.00;;;;;;;25.54;66.85;97092.09;5129216;28;20209;-55
2022/07/05 08:40:53;;;;;;;3.70;2.10;;;;;;;25.90;65.69;97093.94;5128514;28;20269;-54
2022/07/05 08:43:23;;;;;;;2.72;2.03;;;;;;;25.41;66.77;97097.63;5123481;27;20228;-54
2022/07/05 08:45:50;;;;;;;2.50;1.90;;;;;;;25.53;67.30;97097.75;5123201;27;20296;-53
2022/07/05 08:48:17;;;;;;;3.28;2.17;;;;;;;25.40;64.90;97104.09;5129903;27;20220;-54
2022/07/05 08:50:46;;;;;;;2.47;2.28;;;;;;;24.91;69.15;97098.75;5116999;28;20943;-54
2022/07/05 08:53:13;;;;;;;3.03;2.00;;;;;;;24.71;71.49;97099.75;5127589;27;20288;-54
2022/07/05 08:55:43;;;;;;;2.30;2.10;;;;;;;24.64;68.34;97098.13;5130420;28;20287;-53
2022/07/05 08:58:10;;;;;;;2.65;1.90;;;;;;;25.09;71.09;97102.34;5126485;27;20629;-54
2022/07/05 09:00:39;;;;;;;2.00;1.80;;;;;;;25.25;71.40;97106.34;5128860;28;20216;-53
2022/07/05 09:03:08;;;;;;;4.38;2.15;;;;;;;25.88;66.20;97106.06;5115277;28;20292;-55
2022/07/05 09:05:40;;;;;;;2.50;1.80;;;;;;;26.28;62.80;97099.09;5129260;28;20225;-54
2022/07/05 09:08:10;;;;;;;3.70;2.20;;;;;;;26.25;64.25;97098.72;5126351;28;20272;-54
2022/07/05 09:10:40;;;;;;;2.13;1.90;;;;;;;26.13;67.85;97098.63;5119087;28;20287;-55
2022/07/05 09:13:09;;;;;;;2.50;2.15;;;;;;;25.77;64.57;97099.53;5122870;27;20625;-53
2022/07/05 09:15:40;;;;;;;4.65;2.17;;;;;;;26.11;61.85;97096.16;5128786;28;20301;-53
2022/07/05 09:18:06;;;;;;;2.03;1.58;;;;;;;26.02;62.29;97092.13;5126221;28;20208;-55
2022/07/05 09:20:34;;;;;;;2.55;2.15;;;;;;;25.73;62.94;97099.16;5129440;27;20325;-53
2022/07/05 09:23:03;;;;;;;2.88;1.98;;;;;;;25.56;64.11;97094.56;5117989;28;20209;-55
2022/07/05 09:25:31;;;;;;;2.85;2.08;;;;;;;25.98;64.46;97095.50;5129491;27;20217;-54
2022/07/05 09:27:59;;;;;;;2.05;1.85;;;;;;;26.30;63.66;97099.69;5129109;28;20655;-53
2022/07/05 09:30:33;;;;;;;1.50;1.45;;;;;;;26.68;60.51;97108.25;5124026;28;20204;-54
2022/07/05 09:33:08;;;;;;;2.58;2.15;;;;;;;26.99;57.55;97103.63;5121244;28;20280;-55
2022/07/05 09:35:39;;;;;;;1.80;1.67;;;;;;;26.86;56.65;97103.81;5125657;27;20208;-54
2022/07/05 09:38:06;;;;;;;1.83;1.70;;;;;;;27.29;59.41;97108.91;5128821;28;20190;-54
2022/07/05 09:40:34;;;;;;;2.72;2.00;;;;;;;27.12;58.71;97109.66;5126775;28;20243;-54
2022/07/05 09:43:14;;;;;;;2.75;1.48;;;;;;;27.16;57.42;97105.41;5124492;27;20243;-53
2022/07/05 09:45:41;;;;;;;2.15;2.03;;;;;;;27.45;56.99;97108.25;5125906;27;20215;-55
2022/07/05 09:48:18;;;;;;;2.17;1.98;;;;;;;27.55;55.95;97098.44;5120169;27;20205;-53
2022/07/05 09:50:45;;;;;;;2.60;1.67;;;;;;;27.48;53.54;97097.72;5120234;27;20203;-54
2022/07/05 09:53:12;;;;;;;2.20;1.50;;;;;;;27.68;53.86;97097.31;5131571;27;20649;-54
2022/07/05 09:55:40;;;;;;;1.83;1.70;;;;;;;27.82;56.43;97089.72;5134466;27;20208;-55
2022/07/05 09:58:07;;;;;;;2.78;1.70;;;;;;;27.95;52.28;97092.19;5131769;27;20211;-54
2022/07/05 10:00:34;;;;;;;2.30;1.77;;;;;;;27.78;54.34;97094.81;5133704;27;20236;-54
2022/07/05 10:03:02;;;;;;;2.67;1.70;;;;;;;27.86;52.58;97096.31;5128919;27;20288;-54
2022/07/05 10:05:31;;;;;;;1.35;1.30;;;;;;;27.96;52.56;97083.75;5127971;27;20197;-54
2022/07/05 10:08:01;;;;;;;4.28;1.20;;;;;;;27.63;51.49;97087.16;5133046;27;20288;-52
2022/07/05 10:10:30;;;;;;;2.20;1.55;;;;;;;27.84;50.82;97085.72;5141043;27;20200;-54
2022/07/05 10:13:01;;;;;;;5.03;1.35;;;;;;;27.86;45.37;97082.72;5137506;27;20220;-54
2022/07/05 10:15:30;;;;;;;1.70;1.10;;;;;;;27.92;42.83;97085.31;5134635;27;20570;-54
2022/07/05 10:18:00;;;;;;;1.10;1.00;;;;;;;28.02;40.94;97090.16;5137856;27;20205;-54
2022/07/05 10:20:33;;;;;;;1.95;1.08;;;;;;;28.23;41.69;97089.50;5141970;27;20328;-54
2022/07/05 10:23:03;;;;;;;0.70;0.70;;;;;;;28.44;40.56;97088.78;5135727;28;20196;-53
2022/07/05 10:25:29;;;;;;;2.38;1.02;;;;;;;28.24;37.90;97085.69;5152051;27;20209;-54
2022/07/05 10:27:58;;;;;;;1.58;1.08;;;;;;;28.03;40.01;97086.34;5133124;28;20205;-53
2022/07/05 10:30:25;;;;;;;1.50;1.05;;;;;;;27.77;38.40;97084.19;5145098;27;20220;-54
2022/07/05 10:32:52;;;;;;;2.83;1.08;;;;;;;27.86;40.31;97085.47;5133460;27;20244;-54
2022/07/05 10:35:21;;;;;;;1.58;1.15;;;;;;;28.02;40.55;97082.00;5145155;27;20208;-53
2022/07/05 10:37:49;;;;;;;1.40;1.05;;;;;;;28.07;39.69;97079.38;5145524;27;20231;-53
2022/07/05 10:40:18;;;;;;;2.75;1.10;;;;;;;27.67;37.53;97074.75;5142419;27;20228;-55
2022/07/05 10:42:48;;;;;;;2.58;1.05;;;;;;;27.29;38.42;97081.75;5142342;27;20217;-56
2022/07/05 10:45:28;;;;;;;2.50;1.20;;;;;;;27.32;41.65;97081.28;5149253;27;20205;-54
2022/07/05 10:48:15;;;;;;;1.65;1.33;;;;;;;27.45;42.35;97083.78;5141747;27;20227;-55
2022/07/05 10:50:49;;;;;;;1.05;1.05;;;;;;;27.80;42.37;97072.84;5144583;27;20185;-54
2022/07/05 10:53:19;;;;;;;1.85;1.10;;;;;;;27.71;41.08;97072.38;5126296;27;20256;-54
2022/07/05 10:56:12;;;;;;;1.20;1.10;;;;;;;27.60;40.57;97074.06;5136174;27;20283;-54
2022/07/05 10:58:43;;;;;;;1.92;1.20;;;;;;;27.88;42.98;97069.75;5129852;27;20199;-53
2022/07/05 11:01:38;;;;;;;1.13;1.00;;;;;;;28.13;41.99;97073.78;5123544;27;20209;-54
2022/07/05 11:04:29;;;;;;;1.95;1.00;;;;;;;28.04;41.56;97074.41;5123483;27;20624;-54
2022/07/05 11:06:58;;;;;;;1.35;1.25;;;;;;;28.38;46.83;97059.00;5123391;27;20197;-53
2022/07/05 11:09:28;;;;;;;1.40;1.15;;;;;;;28.28;43.96;97061.53;5130044;27;20204;-53
2022/07/05 11:12:08;;;;;;;2.92;1.10;;;;;;;28.27;42.48;97059.91;5117648;27;20205;-55
2022/07/05 11:14:37;;;;;;;1.48;1.17;;;;;;;28.60;40.33;97058.03;5127907;27;20208;-54
2022/07/05 11:17:29;;;;;;;1.30;1.20;;;;;;;28.44;40.53;97058.88;5130393;27;20205;-54
2022/07/05 11:20:04;;;;;;;1.48;1.00;;;;;;;28.81;42.33;97053.78;5110165;27;20623;-53
2022/07/05 11:22:31;;;;;;;1.23;1.10;;;;;;;28.81;40.24;97050.22;5124339;27;20274;-54
2022/07/05 11:25:02;;;;;;;2.38;1.02;;;;;;;29.11;42.38;97047.97;5124292;27;20204;-53
2022/07/05 11:27:29;;;;;;;1.20;1.10;;;;;;;29.19;42.31;97044.84;5129379;27;20538;-54
2022/07/05 11:29:57;;;;;;;3.45;1.55;;;;;;;29.24;37.86;97052.22;5134004;27;20612;-54
2022/07/05 11:32:28;;;;;;;4.07;3.28;;;;;;;29.37;39.17;97046.47;5131562;27;20307;-55
2022/07/05 11:34:57;;;;;;;2.70;1.63;;;;;;;29.40;41.78;97045.97;5124977;27;20212;-53
2022/07/05 11:37:28;;;;;;;1.77;1.35;;;;;;;29.36;38.39;97034.75;5129253;27;20204;-53
2022/07/05 11:40:30;;;;;;;2.40;1.40;;;;;;;29.30;40.00;97034.94;5126613;27;20312;-53
2022/07/05 11:42:58;;;;;;;1.67;1.33;;;;;;;29.25;40.48;97038.38;5124517;27;20726;-54
2022/07/05 11:45:26;;;;;;;1.27;1.17;;;;;;;29.34;42.72;97036.88;5127127;27;20197;-53
2022/07/05 11:47:56;;;;;;;2.25;1.40;;;;;;;29.18;42.69;97037.72;5128843;27;20510;-55